sensor_id;sensor_type;location;lat;lon;timestamp;temperature;humidity
3758;DHT22;1894;51.038;13.692;2023-10-08T00:01:17;18.90;99.90
3758;DHT22;1894;51.038;13.692;2023-10-08T00:03:48;18.90;99.90
3758;DHT22;1894;51.038;13.692;2023-10-08T00:06:20;18.90;99.90
3758;DHT22;1894;51.038;13.692;2023-10-08T00:08:49;18.90;99.90
3758;DHT22;1894;51.038;13.692;2023-10-08T00:11:19;18.90;99.90
3758;DHT22;1894;51.038;13.692;2023-10-08T00:13:49;18.90;99.90
3758;DHT22;1894;51.038;13.692;2023-10-08T00:16:17;18.90;99.90
3758;DHT22;1894;51.038;13.692;2023-10-08T00:18:45;18.90;99.90
3758;DHT22;1894;51.038;13.692;2023-10-08T00:21:19;18.90;99.90
3758;DHT22;1894;51.038;13.692;2023-10-08T00:23:54;18.90;99.90
3758;DHT22;1894;51.038;13.692;2023-10-08T00:26:24;18.90;99.90
3758;DHT22;1894;51.038;13.692;2023-10-08T00:31:33;18.90;99.90
3758;DHT22;1894;51.038;13.692;2023-10-08T00:34:08;18.90;99.90
3758;DHT22;1894;51.038;13.692;2023-10-08T00:36:41;19.00;99.90
3758;DHT22;1894;51.038;13.692;2023-10-08T00:39:10;19.00;99.90
3758;DHT22;1894;51.038;13.692;2023-10-08T00:41:42;19.00;99.90
3758;DHT22;1894;51.038;13.692;2023-10-08T00:44:11;19.00;99.90
3758;DHT22;1894;51.038;13.692;2023-10-08T00:46:43;19.00;99.90
3758;DHT22;1894;51.038;13.692;2023-10-08T00:49:25;19.00;99.90
3758;DHT22;1894;51.038;13.692;2023-10-08T00:52:03;19.00;99.90
3758;DHT22;1894;51.038;13.692;2023-10-08T00:54:50;18.90;99.90
3758;DHT22;1894;51.038;13.692;2023-10-08T00:57:30;18.90;99.90
3758;DHT22;1894;51.038;13.692;2023-10-08T01:00:01;18.80;99.90
3758;DHT22;1894;51.038;13.692;2023-10-08T01:02:30;18.80;99.90
3758;DHT22;1894;51.038;13.692;2023-10-08T01:05:16;18.80;99.90
3758;DHT22;1894;51.038;13.692;2023-10-08T01:07:53;18.80;99.90
3758;DHT22;1894;51.038;13.692;2023-10-08T01:10:22;18.80;99.90
3758;DHT22;1894;51.038;13.692;2023-10-08T01:12:52;18.80;99.90
3758;DHT22;1894;51.038;13.692;2023-10-08T01:15:22;18.80;99.90
3758;DHT22;1894;51.038;13.692;2023-10-08T01:17:56;18.80;99.90
3758;DHT22;1894;51.038;13.692;2023-10-08T01:20:28;18.70;99.90
3758;DHT22;1894;51.038;13.692;2023-10-08T01:23:11;18.70;99.90
3758;DHT22;1894;51.038;13.692;2023-10-08T01:25:40;18.70;99.90
3758;DHT22;1894;51.038;13.692;2023-10-08T01:28:10;18.60;99.90
3758;DHT22;1894;51.038;13.692;2023-10-08T01:30:53;18.60;99.90
3758;DHT22;1894;51.038;13.692;2023-10-08T01:33:21;18.50;99.90
3758;DHT22;1894;51.038;13.692;2023-10-08T01:35:49;18.40;99.90
3758;DHT22;1894;51.038;13.692;2023-10-08T01:38:16;18.30;99.90
3758;DHT22;1894;51.038;13.692;2023-10-08T01:40:50;18.20;99.90
3758;DHT22;1894;51.038;13.692;2023-10-08T01:43:20;18.00;99.90
3758;DHT22;1894;51.038;13.692;2023-10-08T01:45:48;17.80;99.90
3758;DHT22;1894;51.038;13.692;2023-10-08T01:48:17;17.60;99.90
3758;DHT22;1894;51.038;13.692;2023-10-08T01:50:55;17.40;99.90
3758;DHT22;1894;51.038;13.692;2023-10-08T01:53:25;17.30;99.90
3758;DHT22;1894;51.038;13.692;2023-10-08T01:55:53;17.10;99.90
3758;DHT22;1894;51.038;13.692;2023-10-08T01:58:22;16.90;99.90
3758;DHT22;1894;51.038;13.692;2023-10-08T02:00:50;16.70;99.90
3758;DHT22;1894;51.038;13.692;2023-10-08T02:03:19;16.50;99.90
3758;DHT22;1894;51.038;13.692;2023-10-08T02:05:47;16.10;99.90
3758;DHT22;1894;51.038;13.692;2023-10-08T02:08:15;15.90;99.90
3758;DHT22;1894;51.038;13.692;2023-10-08T02:10:45;15.70;99.90
3758;DHT22;1894;51.038;13.692;2023-10-08T02:13:15;15.50;99.90
3758;DHT22;1894;51.038;13.692;2023-10-08T02:15:51;15.40;99.90
3758;DHT22;1894;51.038;13.692;2023-10-08T02:18:21;15.30;99.90
3758;DHT22;1894;51.038;13.692;2023-10-08T02:20:52;15.00;99.90
3758;DHT22;1894;51.038;13.692;2023-10-08T02:23:20;14.90;99.90
3758;DHT22;1894;51.038;13.692;2023-10-08T02:25:47;14.60;99.90
3758;DHT22;1894;51.038;13.692;2023-10-08T02:28:15;14.50;99.90
3758;DHT22;1894;51.038;13.692;2023-10-08T02:30:44;14.50;99.90
3758;DHT22;1894;51.038;13.692;2023-10-08T02:33:11;14.40;99.90
3758;DHT22;1894;51.038;13.692;2023-10-08T02:35:46;14.40;99.90
3758;DHT22;1894;51.038;13.692;2023-10-08T02:38:16;14.40;99.90
3758;DHT22;1894;51.038;13.692;2023-10-08T02:40:44;14.20;99.90
3758;DHT22;1894;51.038;13.692;2023-10-08T02:43:15;14.20;99.90
3758;DHT22;1894;51.038;13.692;2023-10-08T02:45:44;14.10;99.90
3758;DHT22;1894;51.038;13.692;2023-10-08T02:48:17;14.00;99.90
3758;DHT22;1894;51.038;13.692;2023-10-08T02:50:45;13.90;99.90
3758;DHT22;1894;51.038;13.692;2023-10-08T02:53:13;13.80;99.90
3758;DHT22;1894;51.038;13.692;2023-10-08T02:55:47;13.70;99.90
3758;DHT22;1894;51.038;13.692;2023-10-08T02:58:14;13.60;99.90
3758;DHT22;1894;51.038;13.692;2023-10-08T03:00:43;13.60;99.90
3758;DHT22;1894;51.038;13.692;2023-10-08T03:03:10;13.60;99.90
3758;DHT22;1894;51.038;13.692;2023-10-08T03:05:51;13.50;99.90
3758;DHT22;1894;51.038;13.692;2023-10-08T03:08:19;13.50;99.90
3758;DHT22;1894;51.038;13.692;2023-10-08T03:10:49;13.50;99.90
3758;DHT22;1894;51.038;13.692;2023-10-08T03:13:23;13.40;99.90
3758;DHT22;1894;51.038;13.692;2023-10-08T03:15:50;13.40;99.90
3758;DHT22;1894;51.038;13.692;2023-10-08T03:18:30;13.30;99.90
3758;DHT22;1894;51.038;13.692;2023-10-08T03:21:06;13.20;99.90
3758;DHT22;1894;51.038;13.692;2023-10-08T03:24:09;13.20;99.90
3758;DHT22;1894;51.038;13.692;2023-10-08T03:26:39;13.20;99.90
3758;DHT22;1894;51.038;13.692;2023-10-08T03:29:07;13.20;99.90
3758;DHT22;1894;51.038;13.692;2023-10-08T03:31:35;13.10;99.90
3758;DHT22;1894;51.038;13.692;2023-10-08T03:34:20;12.90;99.90
3758;DHT22;1894;51.038;13.692;2023-10-08T03:36:54;12.70;99.90
3758;DHT22;1894;51.038;13.692;2023-10-08T03:39:32;12.50;99.90
3758;DHT22;1894;51.038;13.692;2023-10-08T03:42:24;12.40;99.90
3758;DHT22;1894;51.038;13.692;2023-10-08T03:44:52;12.40;99.90
3758;DHT22;1894;51.038;13.692;2023-10-08T03:47:22;12.40;99.90
3758;DHT22;1894;51.038;13.692;2023-10-08T03:49:53;12.40;99.90
3758;DHT22;1894;51.038;13.692;2023-10-08T03:52:21;12.30;99.90
3758;DHT22;1894;51.038;13.692;2023-10-08T03:54:50;12.30;99.90
3758;DHT22;1894;51.038;13.692;2023-10-08T03:57:36;12.30;99.90
3758;DHT22;1894;51.038;13.692;2023-10-08T04:00:11;12.20;99.90
3758;DHT22;1894;51.038;13.692;2023-10-08T04:02:46;12.10;99.90
3758;DHT22;1894;51.038;13.692;2023-10-08T04:05:36;12.20;99.90
3758;DHT22;1894;51.038;13.692;2023-10-08T04:08:33;12.10;99.90
3758;DHT22;1894;51.038;13.692;2023-10-08T04:11:25;12.00;99.90
3758;DHT22;1894;51.038;13.692;2023-10-08T04:14:02;11.90;99.90
3758;DHT22;1894;51.038;13.692;2023-10-08T04:16:33;11.90;99.90
3758;DHT22;1894;51.038;13.692;2023-10-08T04:19:04;11.80;99.90
3758;DHT22;1894;51.038;13.692;2023-10-08T04:21:31;11.80;99.90
3758;DHT22;1894;51.038;13.692;2023-10-08T04:24:01;11.80;99.90
3758;DHT22;1894;51.038;13.692;2023-10-08T04:26:32;11.90;99.90
3758;DHT22;1894;51.038;13.692;2023-10-08T04:29:02;11.90;99.90
3758;DHT22;1894;51.038;13.692;2023-10-08T04:31:29;11.90;99.90
3758;DHT22;1894;51.038;13.692;2023-10-08T04:34:04;11.90;99.90
3758;DHT22;1894;51.038;13.692;2023-10-08T04:36:45;11.90;99.90
3758;DHT22;1894;51.038;13.692;2023-10-08T04:39:16;11.80;99.90
3758;DHT22;1894;51.038;13.692;2023-10-08T04:41:48;11.90;99.90
3758;DHT22;1894;51.038;13.692;2023-10-08T04:44:20;11.80;99.90
3758;DHT22;1894;51.038;13.692;2023-10-08T04:46:48;11.80;99.90
3758;DHT22;1894;51.038;13.692;2023-10-08T04:49:19;11.90;99.90
3758;DHT22;1894;51.038;13.692;2023-10-08T04:51:56;12.00;99.90
3758;DHT22;1894;51.038;13.692;2023-10-08T04:54:27;11.90;99.90
3758;DHT22;1894;51.038;13.692;2023-10-08T04:57:01;11.90;99.90
3758;DHT22;1894;51.038;13.692;2023-10-08T04:59:32;11.80;99.90
3758;DHT22;1894;51.038;13.692;2023-10-08T05:02:03;11.80;99.90
3758;DHT22;1894;51.038;13.692;2023-10-08T05:04:48;11.90;99.90
3758;DHT22;1894;51.038;13.692;2023-10-08T05:07:24;11.60;99.90
3758;DHT22;1894;51.038;13.692;2023-10-08T05:09:54;11.60;99.90
3758;DHT22;1894;51.038;13.692;2023-10-08T05:12:42;11.60;99.90
3758;DHT22;1894;51.038;13.692;2023-10-08T05:15:28;11.50;99.90
3758;DHT22;1894;51.038;13.692;2023-10-08T05:18:25;11.60;99.90
3758;DHT22;1894;51.038;13.692;2023-10-08T05:21:05;11.60;99.90
3758;DHT22;1894;51.038;13.692;2023-10-08T05:23:43;11.60;99.90
3758;DHT22;1894;51.038;13.692;2023-10-08T05:26:20;11.60;99.90
3758;DHT22;1894;51.038;13.692;2023-10-08T05:28:57;11.60;99.90
3758;DHT22;1894;51.038;13.692;2023-10-08T05:31:29;11.70;99.90
3758;DHT22;1894;51.038;13.692;2023-10-08T05:34:14;11.70;99.90
3758;DHT22;1894;51.038;13.692;2023-10-08T05:36:44;11.70;99.90
3758;DHT22;1894;51.038;13.692;2023-10-08T05:39:38;11.80;99.90
3758;DHT22;1894;51.038;13.692;2023-10-08T05:42:05;11.70;99.90
3758;DHT22;1894;51.038;13.692;2023-10-08T05:45:09;11.80;99.90
3758;DHT22;1894;51.038;13.692;2023-10-08T05:47:36;11.80;99.90
3758;DHT22;1894;51.038;13.692;2023-10-08T05:50:06;11.80;99.90
3758;DHT22;1894;51.038;13.692;2023-10-08T05:53:05;11.90;99.90
3758;DHT22;1894;51.038;13.692;2023-10-08T05:55:46;11.90;99.90
3758;DHT22;1894;51.038;13.692;2023-10-08T05:58:28;11.80;99.90
3758;DHT22;1894;51.038;13.692;2023-10-08T06:01:12;11.90;99.90
3758;DHT22;1894;51.038;13.692;2023-10-08T06:03:56;11.90;99.90
3758;DHT22;1894;51.038;13.692;2023-10-08T06:06:48;11.80;99.90
3758;DHT22;1894;51.038;13.692;2023-10-08T06:09:35;11.80;99.90
3758;DHT22;1894;51.038;13.692;2023-10-08T06:12:04;11.70;99.90
3758;DHT22;1894;51.038;13.692;2023-10-08T06:14:39;11.50;99.90
3758;DHT22;1894;51.038;13.692;2023-10-08T06:17:20;11.50;99.90
3758;DHT22;1894;51.038;13.692;2023-10-08T06:20:25;11.60;99.90
3758;DHT22;1894;51.038;13.692;2023-10-08T06:22:54;11.70;99.90
3758;DHT22;1894;51.038;13.692;2023-10-08T06:25:26;11.60;99.90
3758;DHT22;1894;51.038;13.692;2023-10-08T06:27:54;11.60;99.90
3758;DHT22;1894;51.038;13.692;2023-10-08T06:30:23;11.40;99.90
3758;DHT22;1894;51.038;13.692;2023-10-08T06:32:56;11.20;99.90
3758;DHT22;1894;51.038;13.692;2023-10-08T06:35:24;11.10;99.90
3758;DHT22;1894;51.038;13.692;2023-10-08T06:37:52;11.20;99.90
3758;DHT22;1894;51.038;13.692;2023-10-08T06:40:26;11.00;99.90
3758;DHT22;1894;51.038;13.692;2023-10-08T06:43:05;10.90;99.90
3758;DHT22;1894;51.038;13.692;2023-10-08T06:45:42;11.00;99.90
3758;DHT22;1894;51.038;13.692;2023-10-08T06:48:11;10.80;99.90
3758;DHT22;1894;51.038;13.692;2023-10-08T06:50:48;10.90;99.90
3758;DHT22;1894;51.038;13.692;2023-10-08T06:53:17;11.00;99.90
3758;DHT22;1894;51.038;13.692;2023-10-08T06:55:49;11.20;99.90
3758;DHT22;1894;51.038;13.692;2023-10-08T06:58:23;11.30;99.90
3758;DHT22;1894;51.038;13.692;2023-10-08T07:00:52;11.20;99.90
3758;DHT22;1894;51.038;13.692;2023-10-08T07:03:22;11.30;99.90
3758;DHT22;1894;51.038;13.692;2023-10-08T07:05:50;11.30;99.90
3758;DHT22;1894;51.038;13.692;2023-10-08T07:08:26;11.30;99.90
3758;DHT22;1894;51.038;13.692;2023-10-08T07:11:00;11.30;99.90
3758;DHT22;1894;51.038;13.692;2023-10-08T07:13:34;11.50;99.90
3758;DHT22;1894;51.038;13.692;2023-10-08T07:16:03;11.60;99.90
3758;DHT22;1894;51.038;13.692;2023-10-08T07:18:31;11.70;99.90
3758;DHT22;1894;51.038;13.692;2023-10-08T07:21:02;11.80;99.90
3758;DHT22;1894;51.038;13.692;2023-10-08T07:23:31;11.80;99.90
3758;DHT22;1894;51.038;13.692;2023-10-08T07:26:02;11.80;99.90
3758;DHT22;1894;51.038;13.692;2023-10-08T07:28:41;11.90;99.90
3758;DHT22;1894;51.038;13.692;2023-10-08T07:31:14;11.90;99.90
3758;DHT22;1894;51.038;13.692;2023-10-08T07:33:50;12.00;99.90
3758;DHT22;1894;51.038;13.692;2023-10-08T07:36:44;11.90;99.90
3758;DHT22;1894;51.038;13.692;2023-10-08T07:39:19;12.00;99.90
3758;DHT22;1894;51.038;13.692;2023-10-08T07:41:53;12.20;99.90
3758;DHT22;1894;51.038;13.692;2023-10-08T07:44:21;12.30;99.90
3758;DHT22;1894;51.038;13.692;2023-10-08T07:46:50;12.40;99.90
3758;DHT22;1894;51.038;13.692;2023-10-08T07:49:18;12.30;99.90
3758;DHT22;1894;51.038;13.692;2023-10-08T07:51:46;12.30;99.90
3758;DHT22;1894;51.038;13.692;2023-10-08T07:54:21;12.40;99.90
3758;DHT22;1894;51.038;13.692;2023-10-08T07:56:55;12.40;99.90
3758;DHT22;1894;51.038;13.692;2023-10-08T07:59:36;12.40;99.90
3758;DHT22;1894;51.038;13.692;2023-10-08T08:02:06;12.40;99.90
3758;DHT22;1894;51.038;13.692;2023-10-08T08:04:41;12.40;99.90
3758;DHT22;1894;51.038;13.692;2023-10-08T08:07:10;12.40;99.90
3758;DHT22;1894;51.038;13.692;2023-10-08T08:09:44;12.50;99.90
3758;DHT22;1894;51.038;13.692;2023-10-08T08:12:22;12.50;99.90
3758;DHT22;1894;51.038;13.692;2023-10-08T08:14:52;12.10;99.90
3758;DHT22;1894;51.038;13.692;2023-10-08T08:17:20;12.10;99.90
3758;DHT22;1894;51.038;13.692;2023-10-08T08:19:50;12.00;99.90
3758;DHT22;1894;51.038;13.692;2023-10-08T08:22:20;11.90;99.90
3758;DHT22;1894;51.038;13.692;2023-10-08T08:24:50;11.70;99.90
3758;DHT22;1894;51.038;13.692;2023-10-08T08:27:43;11.90;99.90
3758;DHT22;1894;51.038;13.692;2023-10-08T08:30:15;12.10;99.90
3758;DHT22;1894;51.038;13.692;2023-10-08T08:32:45;12.20;99.90
3758;DHT22;1894;51.038;13.692;2023-10-08T08:35:20;12.20;99.90
3758;DHT22;1894;51.038;13.692;2023-10-08T08:37:47;12.30;99.90
3758;DHT22;1894;51.038;13.692;2023-10-08T08:40:19;12.40;99.90
3758;DHT22;1894;51.038;13.692;2023-10-08T08:42:52;12.50;99.90
3758;DHT22;1894;51.038;13.692;2023-10-08T08:45:21;12.70;99.90
3758;DHT22;1894;51.038;13.692;2023-10-08T08:47:52;13.00;99.90
3758;DHT22;1894;51.038;13.692;2023-10-08T08:50:19;12.80;99.90
3758;DHT22;1894;51.038;13.692;2023-10-08T08:52:48;12.70;99.90
3758;DHT22;1894;51.038;13.692;2023-10-08T08:55:16;12.80;99.90
3758;DHT22;1894;51.038;13.692;2023-10-08T08:57:47;12.90;99.90
3758;DHT22;1894;51.038;13.692;2023-10-08T09:00:17;13.00;99.90
3758;DHT22;1894;51.038;13.692;2023-10-08T09:02:46;12.80;99.90
3758;DHT22;1894;51.038;13.692;2023-10-08T09:05:15;13.00;99.90
3758;DHT22;1894;51.038;13.692;2023-10-08T09:08:01;12.90;99.90
3758;DHT22;1894;51.038;13.692;2023-10-08T09:10:32;13.20;99.90
3758;DHT22;1894;51.038;13.692;2023-10-08T09:13:06;13.30;99.90
3758;DHT22;1894;51.038;13.692;2023-10-08T09:15:38;13.50;99.90
3758;DHT22;1894;51.038;13.692;2023-10-08T09:18:05;13.60;99.90
3758;DHT22;1894;51.038;13.692;2023-10-08T09:20:37;13.40;99.90
3758;DHT22;1894;51.038;13.692;2023-10-08T09:23:13;13.50;99.90
3758;DHT22;1894;51.038;13.692;2023-10-08T09:25:43;13.60;99.90
3758;DHT22;1894;51.038;13.692;2023-10-08T09:28:12;13.70;99.90
3758;DHT22;1894;51.038;13.692;2023-10-08T09:30:42;13.60;99.90
3758;DHT22;1894;51.038;13.692;2023-10-08T09:33:13;13.20;99.90
3758;DHT22;1894;51.038;13.692;2023-10-08T09:35:42;13.10;99.90
3758;DHT22;1894;51.038;13.692;2023-10-08T09:38:12;13.00;99.90
3758;DHT22;1894;51.038;13.692;2023-10-08T09:40:40;13.10;99.90
3758;DHT22;1894;51.038;13.692;2023-10-08T09:43:11;13.10;99.90
3758;DHT22;1894;51.038;13.692;2023-10-08T09:45:43;13.10;99.90
3758;DHT22;1894;51.038;13.692;2023-10-08T09:48:15;13.10;99.90
3758;DHT22;1894;51.038;13.692;2023-10-08T09:50:45;13.10;99.90
3758;DHT22;1894;51.038;13.692;2023-10-08T09:53:14;12.90;99.90
3758;DHT22;1894;51.038;13.692;2023-10-08T09:55:54;13.10;99.90
3758;DHT22;1894;51.038;13.692;2023-10-08T09:58:24;13.10;99.90
3758;DHT22;1894;51.038;13.692;2023-10-08T10:00:55;13.20;99.90
3758;DHT22;1894;51.038;13.692;2023-10-08T10:03:25;13.10;99.90
3758;DHT22;1894;51.038;13.692;2023-10-08T10:05:54;12.90;99.90
3758;DHT22;1894;51.038;13.692;2023-10-08T10:08:28;13.20;99.90
3758;DHT22;1894;51.038;13.692;2023-10-08T10:11:03;13.50;99.90
3758;DHT22;1894;51.038;13.692;2023-10-08T10:13:38;13.80;99.90
3758;DHT22;1894;51.038;13.692;2023-10-08T10:16:13;14.10;99.90
3758;DHT22;1894;51.038;13.692;2023-10-08T10:18:44;14.20;99.90
3758;DHT22;1894;51.038;13.692;2023-10-08T10:23:43;14.60;99.90
3758;DHT22;1894;51.038;13.692;2023-10-08T10:26:32;14.60;99.90
3758;DHT22;1894;51.038;13.692;2023-10-08T10:31:38;14.80;99.90
3758;DHT22;1894;51.038;13.692;2023-10-08T10:34:11;15.30;99.90
3758;DHT22;1894;51.038;13.692;2023-10-08T10:36:40;15.40;99.90
3758;DHT22;1894;51.038;13.692;2023-10-08T10:39:10;15.40;99.90
3758;DHT22;1894;51.038;13.692;2023-10-08T10:41:44;15.00;99.90
3758;DHT22;1894;51.038;13.692;2023-10-08T10:44:15;15.20;99.90
3758;DHT22;1894;51.038;13.692;2023-10-08T10:46:46;15.40;99.90
3758;DHT22;1894;51.038;13.692;2023-10-08T10:49:40;15.10;99.90
3758;DHT22;1894;51.038;13.692;2023-10-08T10:52:25;15.30;99.90
3758;DHT22;1894;51.038;13.692;2023-10-08T10:55:04;15.20;99.90
3758;DHT22;1894;51.038;13.692;2023-10-08T11:00:25;15.50;99.90
3758;DHT22;1894;51.038;13.692;2023-10-08T11:03:00;15.70;99.90
3758;DHT22;1894;51.038;13.692;2023-10-08T11:05:33;15.70;99.90
3758;DHT22;1894;51.038;13.692;2023-10-08T11:08:06;15.90;99.90
3758;DHT22;1894;51.038;13.692;2023-10-08T11:10:39;16.10;99.90
3758;DHT22;1894;51.038;13.692;2023-10-08T11:13:09;16.40;99.90
3758;DHT22;1894;51.038;13.692;2023-10-08T11:15:48;16.70;99.90
3758;DHT22;1894;51.038;13.692;2023-10-08T11:18:23;16.90;99.90
3758;DHT22;1894;51.038;13.692;2023-10-08T11:21:07;17.00;99.90
3758;DHT22;1894;51.038;13.692;2023-10-08T11:23:44;16.90;99.90
3758;DHT22;1894;51.038;13.692;2023-10-08T11:26:24;16.80;99.90
3758;DHT22;1894;51.038;13.692;2023-10-08T11:29:02;16.90;99.90
3758;DHT22;1894;51.038;13.692;2023-10-08T11:31:30;16.60;99.90
3758;DHT22;1894;51.038;13.692;2023-10-08T11:34:03;16.00;99.90
3758;DHT22;1894;51.038;13.692;2023-10-08T11:36:37;15.90;99.90
3758;DHT22;1894;51.038;13.692;2023-10-08T11:39:16;15.60;99.90
3758;DHT22;1894;51.038;13.692;2023-10-08T11:42:03;15.50;99.90
3758;DHT22;1894;51.038;13.692;2023-10-08T11:44:32;15.40;99.90
3758;DHT22;1894;51.038;13.692;2023-10-08T11:47:04;15.50;99.90
3758;DHT22;1894;51.038;13.692;2023-10-08T11:49:40;15.70;99.90
3758;DHT22;1894;51.038;13.692;2023-10-08T11:52:30;15.70;99.90
3758;DHT22;1894;51.038;13.692;2023-10-08T11:54:58;15.50;99.90
3758;DHT22;1894;51.038;13.692;2023-10-08T11:57:25;15.50;99.90
3758;DHT22;1894;51.038;13.692;2023-10-08T11:59:53;15.60;99.90
3758;DHT22;1894;51.038;13.692;2023-10-08T12:02:22;15.50;99.90
3758;DHT22;1894;51.038;13.692;2023-10-08T12:04:49;15.50;99.90
3758;DHT22;1894;51.038;13.692;2023-10-08T12:07:18;15.40;99.90
3758;DHT22;1894;51.038;13.692;2023-10-08T12:09:46;15.20;99.90
3758;DHT22;1894;51.038;13.692;2023-10-08T12:12:16;15.10;99.90
3758;DHT22;1894;51.038;13.692;2023-10-08T12:14:50;15.60;99.90
3758;DHT22;1894;51.038;13.692;2023-10-08T12:17:21;17.90;99.90
3758;DHT22;1894;51.038;13.692;2023-10-08T12:19:57;20.70;99.90
3758;DHT22;1894;51.038;13.692;2023-10-08T12:22:39;22.80;99.90
3758;DHT22;1894;51.038;13.692;2023-10-08T12:25:06;24.50;99.90
3758;DHT22;1894;51.038;13.692;2023-10-08T12:27:34;25.40;98.90
3758;DHT22;1894;51.038;13.692;2023-10-08T12:30:01;24.90;97.00
3758;DHT22;1894;51.038;13.692;2023-10-08T12:32:37;23.30;98.20
3758;DHT22;1894;51.038;13.692;2023-10-08T12:35:09;23.20;98.20
3758;DHT22;1894;51.038;13.692;2023-10-08T12:37:39;21.80;98.60
3758;DHT22;1894;51.038;13.692;2023-10-08T12:40:08;21.60;99.00
3758;DHT22;1894;51.038;13.692;2023-10-08T12:42:39;20.50;99.90
3758;DHT22;1894;51.038;13.692;2023-10-08T12:45:06;19.90;99.90
3758;DHT22;1894;51.038;13.692;2023-10-08T12:47:39;19.50;99.90
3758;DHT22;1894;51.038;13.692;2023-10-08T12:50:07;18.90;99.90
3758;DHT22;1894;51.038;13.692;2023-10-08T12:52:35;18.60;99.90
3758;DHT22;1894;51.038;13.692;2023-10-08T12:55:02;18.40;99.90
3758;DHT22;1894;51.038;13.692;2023-10-08T12:57:33;17.90;99.90
3758;DHT22;1894;51.038;13.692;2023-10-08T13:00:01;17.80;99.90
3758;DHT22;1894;51.038;13.692;2023-10-08T13:02:30;17.40;99.90
3758;DHT22;1894;51.038;13.692;2023-10-08T13:04:58;17.70;99.90
3758;DHT22;1894;51.038;13.692;2023-10-08T13:07:26;18.00;99.90
3758;DHT22;1894;51.038;13.692;2023-10-08T13:09:53;18.60;99.90
3758;DHT22;1894;51.038;13.692;2023-10-08T13:12:20;18.60;99.90
3758;DHT22;1894;51.038;13.692;2023-10-08T13:14:48;18.40;99.90
3758;DHT22;1894;51.038;13.692;2023-10-08T13:17:15;18.50;99.90
3758;DHT22;1894;51.038;13.692;2023-10-08T13:19:42;18.30;99.90
3758;DHT22;1894;51.038;13.692;2023-10-08T13:22:12;18.10;99.90
3758;DHT22;1894;51.038;13.692;2023-10-08T13:24:46;17.80;99.90
3758;DHT22;1894;51.038;13.692;2023-10-08T13:27:15;18.40;99.90
3758;DHT22;1894;51.038;13.692;2023-10-08T13:29:43;18.40;99.90
3758;DHT22;1894;51.038;13.692;2023-10-08T13:32:10;18.20;99.90
3758;DHT22;1894;51.038;13.692;2023-10-08T13:34:44;17.90;99.90
3758;DHT22;1894;51.038;13.692;2023-10-08T13:37:13;17.90;99.90
3758;DHT22;1894;51.038;13.692;2023-10-08T13:39:43;17.80;99.90
3758;DHT22;1894;51.038;13.692;2023-10-08T13:42:10;17.70;99.90
3758;DHT22;1894;51.038;13.692;2023-10-08T13:44:43;17.40;99.90
3758;DHT22;1894;51.038;13.692;2023-10-08T13:47:12;17.30;99.90
3758;DHT22;1894;51.038;13.692;2023-10-08T13:49:42;17.40;99.90
3758;DHT22;1894;51.038;13.692;2023-10-08T13:52:10;17.00;99.90
3758;DHT22;1894;51.038;13.692;2023-10-08T13:54:37;16.90;99.90
3758;DHT22;1894;51.038;13.692;2023-10-08T13:57:09;16.90;99.90
3758;DHT22;1894;51.038;13.692;2023-10-08T13:59:41;16.80;99.90
3758;DHT22;1894;51.038;13.692;2023-10-08T14:02:09;16.70;99.90
3758;DHT22;1894;51.038;13.692;2023-10-08T14:04:43;16.80;99.90
3758;DHT22;1894;51.038;13.692;2023-10-08T14:07:11;17.00;99.90
3758;DHT22;1894;51.038;13.692;2023-10-08T14:09:44;17.20;99.90
3758;DHT22;1894;51.038;13.692;2023-10-08T14:12:13;17.20;99.90
3758;DHT22;1894;51.038;13.692;2023-10-08T14:14:41;17.80;99.90
3758;DHT22;1894;51.038;13.692;2023-10-08T14:17:13;17.70;99.90
3758;DHT22;1894;51.038;13.692;2023-10-08T14:20:03;17.20;99.90
3758;DHT22;1894;51.038;13.692;2023-10-08T14:22:39;17.10;99.90
3758;DHT22;1894;51.038;13.692;2023-10-08T14:25:11;16.80;99.90
3758;DHT22;1894;51.038;13.692;2023-10-08T14:27:41;16.80;99.90
3758;DHT22;1894;51.038;13.692;2023-10-08T14:30:19;16.70;99.90
3758;DHT22;1894;51.038;13.692;2023-10-08T14:32:51;16.70;99.90
3758;DHT22;1894;51.038;13.692;2023-10-08T14:35:18;17.20;99.90
3758;DHT22;1894;51.038;13.692;2023-10-08T14:38:04;19.40;99.90
3758;DHT22;1894;51.038;13.692;2023-10-08T14:40:49;22.10;99.90
3758;DHT22;1894;51.038;13.692;2023-10-08T14:43:35;24.30;98.70
3758;DHT22;1894;51.038;13.692;2023-10-08T14:46:04;24.90;96.40
3758;DHT22;1894;51.038;13.692;2023-10-08T14:48:36;24.10;96.10
3758;DHT22;1894;51.038;13.692;2023-10-08T14:51:03;22.00;95.20
3758;DHT22;1894;51.038;13.692;2023-10-08T14:53:34;21.10;97.00
3758;DHT22;1894;51.038;13.692;2023-10-08T14:56:01;20.20;97.00
3758;DHT22;1894;51.038;13.692;2023-10-08T14:58:32;22.00;97.10
3758;DHT22;1894;51.038;13.692;2023-10-08T15:00:59;23.60;95.70
3758;DHT22;1894;51.038;13.692;2023-10-08T15:03:26;22.60;95.30
3758;DHT22;1894;51.038;13.692;2023-10-08T15:05:54;22.40;95.60
3758;DHT22;1894;51.038;13.692;2023-10-08T15:08:22;21.80;96.90
3758;DHT22;1894;51.038;13.692;2023-10-08T15:10:50;22.50;96.40
3758;DHT22;1894;51.038;13.692;2023-10-08T15:13:18;22.10;96.40
3758;DHT22;1894;51.038;13.692;2023-10-08T15:15:45;21.20;96.50
3758;DHT22;1894;51.038;13.692;2023-10-08T15:18:12;19.80;97.90
3758;DHT22;1894;51.038;13.692;2023-10-08T15:20:41;18.90;99.10
3758;DHT22;1894;51.038;13.692;2023-10-08T15:23:10;18.70;99.90
3758;DHT22;1894;51.038;13.692;2023-10-08T15:25:40;18.40;99.90
3758;DHT22;1894;51.038;13.692;2023-10-08T15:28:08;18.10;99.90
3758;DHT22;1894;51.038;13.692;2023-10-08T15:30:35;17.30;99.90
3758;DHT22;1894;51.038;13.692;2023-10-08T15:33:03;16.90;99.90
3758;DHT22;1894;51.038;13.692;2023-10-08T15:35:31;16.50;99.90
3758;DHT22;1894;51.038;13.692;2023-10-08T15:38:00;16.20;99.90
3758;DHT22;1894;51.038;13.692;2023-10-08T15:40:30;15.70;99.90
3758;DHT22;1894;51.038;13.692;2023-10-08T15:43:00;15.20;99.90
3758;DHT22;1894;51.038;13.692;2023-10-08T15:45:27;14.80;99.90
3758;DHT22;1894;51.038;13.692;2023-10-08T15:47:56;14.60;99.90
3758;DHT22;1894;51.038;13.692;2023-10-08T15:50:23;14.50;99.90
3758;DHT22;1894;51.038;13.692;2023-10-08T15:52:54;14.40;99.90
3758;DHT22;1894;51.038;13.692;2023-10-08T15:55:23;14.40;99.90
3758;DHT22;1894;51.038;13.692;2023-10-08T15:57:52;14.30;99.90
3758;DHT22;1894;51.038;13.692;2023-10-08T16:00:20;14.30;99.90
3758;DHT22;1894;51.038;13.692;2023-10-08T16:02:48;14.20;99.90
3758;DHT22;1894;51.038;13.692;2023-10-08T16:05:16;14.10;99.90
3758;DHT22;1894;51.038;13.692;2023-10-08T16:07:46;13.90;99.90
3758;DHT22;1894;51.038;13.692;2023-10-08T16:10:14;13.90;99.90
3758;DHT22;1894;51.038;13.692;2023-10-08T16:12:42;13.90;99.90
3758;DHT22;1894;51.038;13.692;2023-10-08T16:15:10;13.80;99.90
3758;DHT22;1894;51.038;13.692;2023-10-08T16:17:38;13.70;99.90
3758;DHT22;1894;51.038;13.692;2023-10-08T16:20:07;13.70;99.90
3758;DHT22;1894;51.038;13.692;2023-10-08T16:22:43;13.70;99.90
3758;DHT22;1894;51.038;13.692;2023-10-08T16:25:14;13.60;99.90
3758;DHT22;1894;51.038;13.692;2023-10-08T16:27:46;13.50;99.90
3758;DHT22;1894;51.038;13.692;2023-10-08T16:30:21;13.40;99.90